createdAt,value
2023-01-15T00:01:49.481Z,11.23
2023-01-15T00:04:52.991Z,11.24
2023-01-15T00:07:56.975Z,11.26
2023-01-15T00:10:59.753Z,11.27
2023-01-15T00:14:03.001Z,11.25
2023-01-15T00:17:05.787Z,11.28
2023-01-15T00:20:10.033Z,11.25
2023-01-15T00:23:36.258Z,11.24
2023-01-15T00:26:57.446Z,11.26
2023-01-15T00:30:00.210Z,11.28
2023-01-15T00:33:03.821Z,11.29
2023-01-15T00:36:07.229Z,11.38
2023-01-15T00:39:11.385Z,11.32
2023-01-15T00:42:14.173Z,11.38
2023-01-15T00:45:16.844Z,11.39
2023-01-15T00:48:19.844Z,11.39
2023-01-15T00:51:22.584Z,11.43
2023-01-15T00:54:29.826Z,11.45
2023-01-15T00:57:32.518Z,11.50
2023-01-15T01:00:35.255Z,11.49
2023-01-15T01:03:37.968Z,11.50
2023-01-15T01:06:43.003Z,11.53
2023-01-15T01:09:49.271Z,11.50
2023-01-15T01:12:56.166Z,11.50
2023-01-15T01:15:59.331Z,11.53
2023-01-15T01:19:03.712Z,11.45
2023-01-15T01:22:06.440Z,11.61
2023-01-15T01:25:11.732Z,11.53
2023-01-15T01:28:14.572Z,11.48
2023-01-15T01:31:21.270Z,11.48
2023-01-15T01:34:23.992Z,11.48
2023-01-15T01:37:26.707Z,11.46
2023-01-15T01:40:30.683Z,11.42
2023-01-15T01:43:54.496Z,11.37
2023-01-15T01:46:57.866Z,11.38
2023-01-15T01:50:04.268Z,11.36
2023-01-15T01:53:11.833Z,11.33
2023-01-15T01:56:17.699Z,11.30
2023-01-15T01:59:22.719Z,11.33
2023-01-15T02:02:29.682Z,11.37
2023-01-15T02:05:35.101Z,11.37
2023-01-15T02:08:39.563Z,11.37
2023-01-15T02:11:44.269Z,11.37
2023-01-15T02:14:54.862Z,11.36
2023-01-15T02:18:03.342Z,11.33
2023-01-15T02:21:11.970Z,11.33
2023-01-15T02:24:23.660Z,11.26
2023-01-15T02:27:28.734Z,11.31
2023-01-15T02:30:36.535Z,11.31
2023-01-15T02:33:42.313Z,11.32
2023-01-15T02:36:58.220Z,11.31
2023-01-15T02:40:03.159Z,11.33
2023-01-15T02:43:08.897Z,11.33
2023-01-15T02:46:12.745Z,11.37
2023-01-15T02:49:20.492Z,11.38
2023-01-15T02:52:30.678Z,11.40
2023-01-15T02:55:37.546Z,11.39
2023-01-15T02:58:44.870Z,11.41
2023-01-15T03:01:52.665Z,11.39
2023-01-15T03:05:03.725Z,11.39
2023-01-15T03:08:09.623Z,11.43
2023-01-15T03:11:14.281Z,11.43
2023-01-15T03:14:22.901Z,11.45
2023-01-15T03:17:37.353Z,11.45
2023-01-15T03:20:49.706Z,11.43
2023-01-15T03:23:55.570Z,11.44
2023-01-15T03:26:58.394Z,11.42
2023-01-15T03:30:06.815Z,11.57
2023-01-15T03:33:11.599Z,11.48
2023-01-15T03:36:18.200Z,10.91
2023-01-15T03:39:21.021Z,10.88
2023-01-15T03:42:46.223Z,10.45
2023-01-15T03:45:54.280Z,10.27
2023-01-15T03:49:07.115Z,10.07
2023-01-15T03:52:18.508Z,9.92
2023-01-15T03:55:26.520Z,9.98
2023-01-15T03:58:33.912Z,9.86
2023-01-15T04:01:41.070Z,9.78
2023-01-15T04:04:45.338Z,9.81
2023-01-15T04:07:52.674Z,9.72
2023-01-15T04:11:01.899Z,9.72
2023-01-15T04:14:07.510Z,9.71
2023-01-15T04:17:11.705Z,9.71
2023-01-15T04:20:14.657Z,9.67
2023-01-15T04:23:17.422Z,9.70
2023-01-15T04:26:23.175Z,9.64
2023-01-15T04:29:33.316Z,9.67
2023-01-15T04:32:37.520Z,9.83
2023-01-15T04:35:40.392Z,9.77
2023-01-15T04:38:43.108Z,9.62
2023-01-15T04:42:04.016Z,9.69
2023-01-15T04:45:07.689Z,9.37
2023-01-15T04:48:12.622Z,9.13
2023-01-15T04:51:15.435Z,9.11
2023-01-15T04:54:18.914Z,9.00
2023-01-15T04:57:24.950Z,8.94
2023-01-15T05:00:28.043Z,9.02
2023-01-15T05:03:32.394Z,8.97
2023-01-15T05:06:35.321Z,8.80
2023-01-15T05:09:38.409Z,8.67
2023-01-15T05:12:41.144Z,8.69
2023-01-15T05:15:46.700Z,8.78
2023-01-15T05:18:51.493Z,8.68
2023-01-15T05:21:54.433Z,8.69
2023-01-15T05:24:57.136Z,8.76
2023-01-15T05:28:03.002Z,8.85
2023-01-15T05:31:10.716Z,8.82
2023-01-15T05:34:14.862Z,8.82
2023-01-15T05:37:19.751Z,8.77
2023-01-15T05:40:22.469Z,8.76
2023-01-15T05:43:27.613Z,8.80
2023-01-15T05:46:35.006Z,8.91
2023-01-15T05:49:42.627Z,8.77
2023-01-15T05:52:45.290Z,8.69
2023-01-15T05:55:48.105Z,8.88
2023-01-15T05:58:50.839Z,8.34
2023-01-15T06:01:54.638Z,8.07
2023-01-15T06:04:58.664Z,8.08
2023-01-15T06:08:01.935Z,7.75
2023-01-15T06:11:08.095Z,7.51
2023-01-15T06:14:12.399Z,7.30
2023-01-15T06:17:15.662Z,7.15
2023-01-15T06:20:19.958Z,6.97
2023-01-15T06:23:24.942Z,7.09
2023-01-15T06:26:30.520Z,6.87
2023-01-15T06:29:33.227Z,6.97
2023-01-15T06:32:35.923Z,6.93
2023-01-15T06:35:39.924Z,6.94
2023-01-15T06:38:43.199Z,7.01
2023-01-15T06:42:06.602Z,7.02
2023-01-15T06:45:29.033Z,7.09
2023-01-15T06:48:38.942Z,6.95
2023-01-15T06:51:42.978Z,6.99
2023-01-15T06:54:45.644Z,6.94
2023-01-15T06:57:48.446Z,6.93
2023-01-15T07:00:56.024Z,6.85
2023-01-15T07:03:58.836Z,6.86
2023-01-15T07:07:03.101Z,6.80
2023-01-15T07:10:06.532Z,6.75
2023-01-15T07:13:10.944Z,6.78
2023-01-15T07:16:27.614Z,6.93
2023-01-15T07:19:30.401Z,6.85
2023-01-15T07:22:34.529Z,6.90
2023-01-15T07:25:38.814Z,6.86
2023-01-15T07:28:41.506Z,6.88
2023-01-15T07:31:44.351Z,6.95
2023-01-15T07:34:47.697Z,6.99
2023-01-15T07:37:53.482Z,7.03
2023-01-15T07:41:11.413Z,7.09
2023-01-15T07:44:31.537Z,7.17
2023-01-15T07:48:06.256Z,7.18
2023-01-15T07:51:09.004Z,7.20
2023-01-15T07:54:13.129Z,7.16
2023-01-15T07:57:17.924Z,7.11
2023-01-15T08:00:23.678Z,7.18
2023-01-15T08:03:26.393Z,7.20
2023-01-15T08:06:31.320Z,7.24
2023-01-15T08:09:38.478Z,7.26
2023-01-15T08:12:59.666Z,7.27
2023-01-15T08:16:03.191Z,7.28
2023-01-15T08:19:09.035Z,7.32
2023-01-15T08:22:12.240Z,7.31
2023-01-15T08:25:19.446Z,7.34
2023-01-15T08:28:23.013Z,7.39
2023-01-15T08:31:26.361Z,7.38
2023-01-15T08:34:29.126Z,7.41
2023-01-15T08:37:31.981Z,7.33
2023-01-15T08:41:01.104Z,7.37
2023-01-15T08:44:05.296Z,7.39
2023-01-15T08:47:08.171Z,7.41
2023-01-15T08:50:11.990Z,7.40
2023-01-15T08:53:19.124Z,7.42
2023-01-15T08:56:23.206Z,7.45
2023-01-15T08:59:25.974Z,7.46
2023-01-15T09:02:29.817Z,7.51
2023-01-15T09:05:32.559Z,7.58
2023-01-15T09:08:35.290Z,7.62
2023-01-15T09:11:41.040Z,7.69
2023-01-15T09:14:59.583Z,7.70
2023-01-15T09:18:07.779Z,7.64
2023-01-15T09:21:10.610Z,7.55
2023-01-15T09:24:13.360Z,7.54
2023-01-15T09:27:17.415Z,7.51
2023-01-15T09:30:21.818Z,7.54
2023-01-15T09:33:24.651Z,7.54
2023-01-15T09:36:31.348Z,7.55
2023-01-15T09:39:34.262Z,7.57
2023-01-15T09:42:51.008Z,7.58
2023-01-15T09:45:58.167Z,7.60
2023-01-15T09:49:14.518Z,7.56
2023-01-15T09:52:26.991Z,7.60
2023-01-15T09:55:32.980Z,7.56
2023-01-15T09:58:40.287Z,7.64
2023-01-15T10:01:44.689Z,7.72
2023-01-15T10:04:53.677Z,7.69
2023-01-15T10:08:02.215Z,7.71
2023-01-15T10:11:18.795Z,7.73
2023-01-15T10:14:39.606Z,7.71
2023-01-15T10:17:44.175Z,7.65
2023-01-15T10:21:03.289Z,7.64
2023-01-15T10:24:11.235Z,7.65
2023-01-15T10:27:20.853Z,7.66
2023-01-15T10:30:40.034Z,7.58
2023-01-15T10:34:00.440Z,7.57
2023-01-15T10:37:10.866Z,7.52
2023-01-15T10:40:37.787Z,7.49
2023-01-15T10:43:51.776Z,7.45
2023-01-15T10:46:59.854Z,7.52
2023-01-15T10:50:04.713Z,7.37
2023-01-15T10:53:14.760Z,7.37
2023-01-15T10:56:27.466Z,7.36
2023-01-15T10:59:40.533Z,7.33
2023-01-15T11:02:48.154Z,7.36
2023-01-15T11:05:51.146Z,7.40
2023-01-15T11:09:12.160Z,7.38
2023-01-15T11:12:40.516Z,7.43
2023-01-15T11:16:24.152Z,7.51
2023-01-15T11:19:39.996Z,7.54
2023-01-15T11:22:56.036Z,7.60
2023-01-15T11:26:02.064Z,7.63
2023-01-15T11:29:16.475Z,7.45
2023-01-15T11:32:29.181Z,7.61
2023-01-15T11:35:36.029Z,7.44
2023-01-15T11:38:46.121Z,7.35
2023-01-15T11:42:06.971Z,7.31
2023-01-15T11:45:35.433Z,7.28
2023-01-15T11:49:03.165Z,7.25
2023-01-15T11:52:10.867Z,7.25
2023-01-15T11:55:16.479Z,7.29
2023-01-15T11:58:19.219Z,7.25
2023-01-15T12:01:25.680Z,7.28
2023-01-15T12:04:35.698Z,7.35
2023-01-15T12:07:41.858Z,7.43
2023-01-15T12:11:25.273Z,7.48
2023-01-15T12:15:10.927Z,7.41
2023-01-15T12:18:34.710Z,7.33
2023-01-15T12:22:00.278Z,7.20
2023-01-15T12:25:22.961Z,7.18
2023-01-15T12:28:30.565Z,7.15
2023-01-15T12:31:39.031Z,7.13
2023-01-15T12:34:47.008Z,7.21
2023-01-15T12:37:57.621Z,7.27
2023-01-15T12:41:06.282Z,7.34
2023-01-15T12:44:28.955Z,7.35
2023-01-15T12:47:38.064Z,7.22
2023-01-15T12:50:45.715Z,7.18
2023-01-15T12:53:52.483Z,7.19
2023-01-15T12:57:02.950Z,7.16
2023-01-15T13:00:14.602Z,7.15
2023-01-15T13:03:24.630Z,7.24
2023-01-15T13:06:34.939Z,7.34
2023-01-15T13:09:45.154Z,7.41
2023-01-15T13:12:52.917Z,7.47
2023-01-15T13:16:21.170Z,7.42
2023-01-15T13:19:40.848Z,7.32
2023-01-15T13:22:53.500Z,7.30
2023-01-15T13:26:06.320Z,7.28
2023-01-15T13:29:19.290Z,7.39
2023-01-15T13:32:28.890Z,7.45
2023-01-15T13:35:36.712Z,7.48
2023-01-15T13:38:43.051Z,7.47
2023-01-15T13:42:09.857Z,7.35
2023-01-15T13:45:29.014Z,7.18
2023-01-15T13:48:35.566Z,7.06
2023-01-15T13:51:50.252Z,6.93
2023-01-15T13:54:54.042Z,6.89
2023-01-15T13:57:56.771Z,6.89
2023-01-15T14:01:09.801Z,6.84
2023-01-15T14:04:15.840Z,6.83
2023-01-15T14:07:42.778Z,6.87
2023-01-15T14:10:45.597Z,6.92
2023-01-15T14:14:03.307Z,6.86
2023-01-15T14:17:41.451Z,6.81
2023-01-15T14:21:12.807Z,6.78
2023-01-15T14:24:41.064Z,6.70
2023-01-15T14:27:55.488Z,6.67
2023-01-15T14:31:16.303Z,6.61
2023-01-15T14:34:24.035Z,6.55
2023-01-15T14:37:31.700Z,6.58
2023-01-15T14:40:36.559Z,6.57
2023-01-15T14:43:43.009Z,6.50
2023-01-15T14:47:00.831Z,6.52
2023-01-15T14:50:34.900Z,6.50
2023-01-15T14:53:45.182Z,6.49
2023-01-15T14:57:04.396Z,6.54
2023-01-15T15:00:11.016Z,6.51
2023-01-15T15:03:18.408Z,6.42
2023-01-15T15:06:22.904Z,6.46
2023-01-15T15:09:33.886Z,6.46
2023-01-15T15:12:41.557Z,6.25
2023-01-15T15:15:51.759Z,6.41
2023-01-15T15:19:01.998Z,6.38
2023-01-15T15:22:08.771Z,6.40
2023-01-15T15:25:19.958Z,6.43
2023-01-15T15:28:22.649Z,6.60
2023-01-15T15:31:29.482Z,6.66
2023-01-15T15:34:35.359Z,6.61
2023-01-15T15:37:45.476Z,6.57
2023-01-15T15:40:59.089Z,6.54
2023-01-15T15:44:27.969Z,6.47
2023-01-15T15:51:30.049Z,6.46
2023-01-15T15:54:36.576Z,6.53
2023-01-15T15:57:39.343Z,6.57
2023-01-15T16:00:43.240Z,6.59
2023-01-15T16:03:49.943Z,6.57
2023-01-15T16:06:55.712Z,6.50
2023-01-15T16:10:01.963Z,6.55
2023-01-15T16:13:08.514Z,6.56
2023-01-15T16:16:13.064Z,6.56
2023-01-15T16:19:22.826Z,6.57
2023-01-15T16:22:27.777Z,6.54
2023-01-15T16:25:35.622Z,6.54
2023-01-15T16:28:43.040Z,6.54
2023-01-15T16:32:12.445Z,6.43
2023-01-15T16:35:20.537Z,6.40
2023-01-15T16:38:23.216Z,6.33
2023-01-15T16:41:35.479Z,6.24
2023-01-15T16:44:44.115Z,6.21
2023-01-15T16:48:03.212Z,6.22
2023-01-15T16:51:31.563Z,6.30
2023-01-15T16:54:46.786Z,6.28
2023-01-15T16:58:19.742Z,6.29
2023-01-15T17:01:42.031Z,6.30
2023-01-15T17:04:46.035Z,6.37
2023-01-15T17:08:00.900Z,6.39
2023-01-15T17:11:06.245Z,6.43
2023-01-15T17:14:12.275Z,6.48
2023-01-15T17:17:28.893Z,6.50
2023-01-15T17:20:38.347Z,6.66
2023-01-15T17:23:42.871Z,6.69
2023-01-15T17:26:45.950Z,6.69
2023-01-15T17:29:50.208Z,6.73
2023-01-15T17:32:55.124Z,6.74
2023-01-15T17:36:00.730Z,6.73
2023-01-15T17:39:03.560Z,6.66
2023-01-15T17:42:14.809Z,6.58
2023-01-15T17:45:24.725Z,6.54
2023-01-15T17:48:27.422Z,6.49
2023-01-15T17:51:30.556Z,6.48
2023-01-15T17:54:50.843Z,6.44
2023-01-15T17:58:11.001Z,6.43
2023-01-15T18:01:37.543Z,6.46
2023-01-15T18:05:02.107Z,6.44
2023-01-15T18:08:08.586Z,6.47
2023-01-15T18:11:11.678Z,6.59
2023-01-15T18:14:14.611Z,6.61
2023-01-15T18:17:18.701Z,6.74
2023-01-15T18:20:21.659Z,6.76
2023-01-15T18:23:26.073Z,6.80
2023-01-15T18:26:36.968Z,6.81
2023-01-15T18:29:40.373Z,6.71
2023-01-15T18:32:45.760Z,6.62
2023-01-15T18:35:48.452Z,6.57
2023-01-15T18:38:51.247Z,6.49
2023-01-15T18:42:11.607Z,6.48
2023-01-15T18:45:32.153Z,6.44
2023-01-15T18:48:36.181Z,6.41
2023-01-15T18:51:38.864Z,6.40
2023-01-15T18:54:41.632Z,6.10
2023-01-15T18:57:46.666Z,6.43
2023-01-15T19:00:49.367Z,6.43
2023-01-15T19:03:53.556Z,6.37
2023-01-15T19:06:57.185Z,6.35
2023-01-15T19:10:01.841Z,6.32
2023-01-15T19:13:05.572Z,6.39
2023-01-15T19:16:26.158Z,6.44
2023-01-15T19:19:30.370Z,6.48
2023-01-15T19:22:50.426Z,6.56
2023-01-15T19:25:53.177Z,6.57
2023-01-15T19:28:55.856Z,6.56
2023-01-15T19:31:59.291Z,6.50
2023-01-15T19:35:03.385Z,6.46
2023-01-15T19:38:08.404Z,6.25
2023-01-15T19:41:33.397Z,6.40
2023-01-15T19:44:53.608Z,6.41
2023-01-15T19:48:14.360Z,6.34
2023-01-15T19:51:18.387Z,6.30
2023-01-15T19:54:42.871Z,6.22
2023-01-15T19:57:47.874Z,6.14
2023-01-15T20:00:52.759Z,6.08
2023-01-15T20:03:56.175Z,6.11
2023-01-15T20:07:00.225Z,6.22
2023-01-15T20:10:03.620Z,6.32
2023-01-15T20:13:23.813Z,6.38
2023-01-15T20:16:28.093Z,6.41
2023-01-15T20:19:31.109Z,6.34
2023-01-15T20:22:35.155Z,6.29
2023-01-15T20:25:41.346Z,6.25
2023-01-15T20:28:47.498Z,6.19
2023-01-15T20:31:50.203Z,6.15
2023-01-15T20:34:53.069Z,6.04
2023-01-15T20:37:57.085Z,6.00
2023-01-15T20:41:20.245Z,6.09
2023-01-15T20:44:48.672Z,6.09
2023-01-15T20:48:09.011Z,6.12
2023-01-15T20:51:12.852Z,6.11
2023-01-15T20:54:17.028Z,6.08
2023-01-15T20:57:19.820Z,5.97
2023-01-15T21:00:23.195Z,5.96
2023-01-15T21:03:26.172Z,5.91
2023-01-15T21:06:29.005Z,5.83
2023-01-15T21:09:33.088Z,5.87
2023-01-15T21:12:35.984Z,5.87
2023-01-15T21:15:38.653Z,5.94
2023-01-15T21:18:45.139Z,5.97
2023-01-15T21:21:47.813Z,5.97
2023-01-15T21:24:51.866Z,5.96
2023-01-15T21:27:54.851Z,5.93
2023-01-15T21:30:58.470Z,5.99
2023-01-15T21:34:01.460Z,6.05
2023-01-15T21:37:04.198Z,6.08
2023-01-15T21:40:10.111Z,6.06
2023-01-15T21:43:30.287Z,6.09
2023-01-15T21:46:33.127Z,6.15
2023-01-15T21:49:36.876Z,6.29
2023-01-15T21:52:39.915Z,6.39
2023-01-15T21:55:50.978Z,6.34
2023-01-15T21:58:59.803Z,6.36
2023-01-15T22:02:03.563Z,6.34
2023-01-15T22:05:08.259Z,6.31
2023-01-15T22:08:11.803Z,6.29
2023-01-15T22:11:15.829Z,6.31
2023-01-15T22:14:21.684Z,6.29
2023-01-15T22:17:26.342Z,6.26
2023-01-15T22:20:29.705Z,6.20
2023-01-15T22:23:38.499Z,6.12
2023-01-15T22:26:43.539Z,6.08
2023-01-15T22:29:46.253Z,6.02
2023-01-15T22:32:51.470Z,5.99
2023-01-15T22:35:58.620Z,5.96
2023-01-15T22:39:01.310Z,5.89
2023-01-15T22:42:22.793Z,5.88
2023-01-15T22:45:33.316Z,5.84
2023-01-15T22:48:39.108Z,5.84
2023-01-15T22:51:41.849Z,5.86
2023-01-15T22:54:47.979Z,5.87
2023-01-15T22:57:52.023Z,5.96
2023-01-15T23:00:55.919Z,6.01
2023-01-15T23:03:58.683Z,6.08
2023-01-15T23:07:02.069Z,6.12
2023-01-15T23:10:05.940Z,6.13
2023-01-15T23:13:14.522Z,6.16
2023-01-15T23:16:17.886Z,6.11
2023-01-15T23:19:21.289Z,6.08
2023-01-15T23:22:24.060Z,6.14
2023-01-15T23:25:26.778Z,6.15
2023-01-15T23:28:31.010Z,6.15
2023-01-15T23:31:34.164Z,6.17
2023-01-15T23:34:39.068Z,6.22
2023-01-15T23:37:41.758Z,6.21
2023-01-15T23:40:45.755Z,6.26
2023-01-15T23:44:16.335Z,6.24
2023-01-15T23:47:22.326Z,6.27
2023-01-15T23:50:25.881Z,6.28
2023-01-15T23:53:28.561Z,6.27
2023-01-15T23:56:32.505Z,6.29
2023-01-15T23:59:36.585Z,6.32
